createdAt,value
2022-11-08T00:00:14.652Z,87.97
2022-11-08T00:02:41.785Z,87.84
2022-11-08T00:05:27.445Z,88.05
2022-11-08T00:08:12.680Z,88.26
2022-11-08T00:10:58.521Z,88.26
2022-11-08T00:13:44.263Z,87.91
2022-11-08T00:16:12.229Z,87.72
2022-11-08T00:18:39.229Z,87.50
2022-11-08T00:21:06.412Z,87.74
2022-11-08T00:23:33.340Z,87.97
2022-11-08T00:26:00.449Z,87.88
2022-11-08T00:28:27.492Z,88.07
2022-11-08T00:30:54.430Z,88.35
2022-11-08T00:33:21.506Z,88.55
2022-11-08T00:35:48.495Z,88.86
2022-11-08T00:38:15.654Z,88.91
2022-11-08T00:40:42.974Z,89.20
2022-11-08T00:43:10.986Z,89.27
2022-11-08T00:45:38.030Z,89.21
2022-11-08T00:48:11.390Z,88.89
2022-11-08T00:50:40.046Z,88.55
2022-11-08T00:53:07.341Z,88.45
2022-11-08T00:55:34.307Z,88.49
2022-11-08T00:58:06.766Z,88.44
2022-11-08T01:00:33.958Z,88.65
2022-11-08T01:03:19.439Z,88.58
2022-11-08T01:05:52.629Z,88.68
2022-11-08T01:08:23.225Z,89.10
2022-11-08T01:10:52.206Z,89.44
2022-11-08T01:13:20.676Z,89.52
2022-11-08T01:15:48.156Z,89.65
2022-11-08T01:18:17.069Z,89.76
2022-11-08T01:20:47.056Z,90.10
2022-11-08T01:23:15.096Z,90.21
2022-11-08T01:25:46.434Z,90.49
2022-11-08T01:28:13.884Z,90.39
2022-11-08T01:30:44.522Z,90.47
2022-11-08T01:33:12.815Z,90.81
2022-11-08T01:35:40.898Z,90.70
2022-11-08T01:38:08.086Z,90.78
2022-11-08T01:40:47.076Z,90.81
2022-11-08T01:43:26.242Z,90.84
2022-11-08T01:46:16.059Z,90.98
2022-11-08T01:48:57.838Z,91.04
2022-11-08T01:51:32.869Z,91.32
2022-11-08T01:54:08.179Z,91.21
2022-11-08T01:56:39.967Z,91.36
2022-11-08T01:59:10.441Z,91.50
2022-11-08T02:01:37.607Z,91.45
2022-11-08T02:04:08.464Z,91.30
2022-11-08T02:06:39.113Z,91.30
2022-11-08T02:09:13.221Z,91.56
2022-11-08T02:11:41.830Z,91.65
2022-11-08T02:14:08.922Z,91.92
2022-11-08T02:16:36.066Z,91.89
2022-11-08T02:19:07.823Z,91.96
2022-11-08T02:21:49.612Z,92.04
2022-11-08T02:24:17.512Z,92.45
2022-11-08T02:26:47.272Z,92.48
2022-11-08T02:29:35.690Z,92.46
2022-11-08T02:32:05.010Z,92.59
2022-11-08T02:34:44.090Z,92.62
2022-11-08T02:37:18.555Z,93.09
2022-11-08T02:39:46.558Z,93.10
2022-11-08T02:42:15.858Z,92.96
2022-11-08T02:44:42.860Z,92.99
2022-11-08T02:47:10.013Z,92.79
2022-11-08T02:49:37.301Z,92.84
2022-11-08T02:52:05.230Z,92.83
2022-11-08T02:54:32.614Z,92.74
2022-11-08T02:56:59.660Z,92.63
2022-11-08T02:59:26.646Z,92.61
2022-11-08T03:01:53.810Z,92.50
2022-11-08T03:04:21.017Z,92.55
2022-11-08T03:06:49.046Z,92.34
2022-11-08T03:09:16.101Z,92.28
2022-11-08T03:11:44.195Z,92.03
2022-11-08T03:14:11.178Z,91.94
2022-11-08T03:16:38.146Z,92.12
2022-11-08T03:19:05.173Z,92.02
2022-11-08T03:21:36.650Z,91.81
2022-11-08T03:24:05.364Z,91.99
2022-11-08T03:26:32.896Z,91.78
2022-11-08T03:28:59.908Z,91.56
2022-11-08T03:31:27.570Z,91.50
2022-11-08T03:33:54.529Z,91.33
2022-11-08T03:36:21.611Z,91.25
2022-11-08T03:38:48.683Z,91.31
2022-11-08T03:41:15.735Z,90.99
2022-11-08T03:43:42.713Z,90.97
2022-11-08T03:46:09.763Z,90.68
2022-11-08T03:48:36.819Z,90.62
2022-11-08T03:51:04.038Z,90.73
2022-11-08T03:53:31.106Z,90.60
2022-11-08T03:56:02.020Z,90.51
2022-11-08T03:58:31.044Z,90.51
2022-11-08T04:01:05.859Z,90.49
2022-11-08T04:03:33.134Z,90.24
2022-11-08T04:06:02.433Z,90.35
2022-11-08T04:08:30.661Z,90.23
2022-11-08T04:11:21.658Z,90.08
2022-11-08T04:14:07.662Z,90.11
2022-11-08T04:16:34.800Z,90.13
2022-11-08T04:19:20.421Z,90.04
2022-11-08T04:21:51.021Z,90.02
2022-11-08T04:24:18.262Z,89.69
2022-11-08T04:26:45.711Z,89.74
2022-11-08T04:29:13.386Z,89.41
2022-11-08T04:31:41.270Z,89.18
2022-11-08T04:34:08.364Z,89.39
2022-11-08T04:36:35.752Z,89.27
2022-11-08T04:39:03.436Z,89.04
2022-11-08T04:41:30.543Z,89.20
2022-11-08T04:43:57.747Z,89.06
2022-11-08T04:46:28.287Z,89.04
2022-11-08T04:48:59.753Z,88.98
2022-11-08T04:51:30.474Z,88.82
2022-11-08T04:54:00.629Z,88.74
2022-11-08T04:56:30.557Z,88.90
2022-11-08T04:59:00.158Z,88.72
2022-11-08T05:01:30.931Z,88.68
2022-11-08T05:03:58.432Z,88.59
2022-11-08T05:06:31.771Z,88.48
2022-11-08T05:09:00.589Z,88.56
2022-11-08T05:11:29.964Z,88.48
2022-11-08T05:13:57.616Z,88.40
2022-11-08T05:16:29.295Z,88.56
2022-11-08T05:18:57.700Z,88.47
2022-11-08T05:21:44.280Z,88.66
2022-11-08T05:24:15.989Z,88.35
2022-11-08T05:26:46.332Z,88.60
2022-11-08T05:29:15.758Z,88.51
2022-11-08T05:31:42.790Z,88.38
2022-11-08T05:34:10.838Z,88.39
2022-11-08T05:36:37.988Z,88.19
2022-11-08T05:39:05.433Z,88.29
2022-11-08T05:41:32.366Z,88.18
2022-11-08T05:43:59.503Z,88.22
2022-11-08T05:46:26.557Z,88.08
2022-11-08T05:48:54.163Z,88.08
2022-11-08T05:51:21.551Z,88.18
2022-11-08T05:53:49.054Z,88.55
2022-11-08T05:56:18.057Z,89.89
2022-11-08T05:58:45.935Z,89.56
2022-11-08T06:01:19.926Z,89.48
2022-11-08T06:03:48.128Z,88.42
2022-11-08T06:06:19.675Z,87.86
2022-11-08T06:11:35.851Z,86.73
2022-11-08T06:14:03.005Z,86.26
2022-11-08T06:16:30.059Z,86.20
2022-11-08T06:18:57.427Z,86.16
2022-11-08T06:21:26.311Z,86.11
2022-11-08T06:23:54.692Z,85.88
2022-11-08T06:26:24.049Z,85.93
2022-11-08T06:28:51.503Z,86.13
2022-11-08T06:31:18.721Z,86.44
2022-11-08T06:33:46.503Z,86.81
2022-11-08T06:36:14.615Z,86.91
2022-11-08T06:38:41.750Z,87.07
2022-11-08T06:41:19.221Z,87.02
2022-11-08T06:43:46.355Z,87.29
2022-11-08T06:46:15.725Z,87.39
2022-11-08T06:48:42.752Z,87.34
2022-11-08T06:51:09.810Z,87.22
2022-11-08T06:53:36.931Z,87.18
2022-11-08T06:56:04.112Z,87.31
2022-11-08T06:58:32.214Z,87.20
2022-11-08T07:01:04.771Z,86.94
2022-11-08T07:03:33.026Z,86.82
2022-11-08T07:06:04.430Z,86.74
2022-11-08T07:08:33.102Z,86.67
2022-11-08T07:11:00.164Z,86.59
2022-11-08T07:13:27.333Z,86.28
2022-11-08T07:16:04.690Z,86.23
2022-11-08T07:18:31.927Z,86.00
2022-11-08T07:21:01.480Z,85.53
2022-11-08T07:23:29.447Z,85.66
2022-11-08T07:25:56.647Z,85.27
2022-11-08T07:28:23.592Z,85.10
2022-11-08T07:30:50.629Z,84.96
2022-11-08T07:33:18.270Z,84.50
2022-11-08T07:35:47.458Z,84.39
2022-11-08T07:38:15.193Z,84.12
2022-11-08T07:40:42.502Z,83.85
2022-11-08T07:43:12.227Z,83.37
2022-11-08T07:45:41.590Z,83.17
2022-11-08T07:48:13.459Z,82.89
2022-11-08T07:50:42.759Z,82.89
2022-11-08T07:53:11.032Z,82.37
2022-11-08T07:55:40.315Z,81.95
2022-11-08T07:58:10.582Z,81.71
2022-11-08T08:00:40.525Z,81.30
2022-11-08T08:03:12.216Z,80.88
2022-11-08T08:05:43.655Z,80.44
2022-11-08T08:08:13.043Z,79.98
2022-11-08T08:10:41.107Z,79.58
2022-11-08T08:13:08.502Z,79.49
2022-11-08T08:15:35.854Z,78.55
2022-11-08T08:18:06.110Z,78.17
2022-11-08T08:20:34.717Z,78.13
2022-11-08T08:23:01.871Z,78.07
2022-11-08T08:25:31.456Z,77.31
2022-11-08T08:28:02.821Z,77.15
2022-11-08T08:30:32.694Z,76.89
2022-11-08T08:33:31.909Z,76.83
2022-11-08T08:36:02.261Z,76.84
2022-11-08T08:38:31.465Z,76.97
2022-11-08T08:40:59.344Z,76.94
2022-11-08T08:43:29.877Z,76.71
2022-11-08T08:46:05.560Z,76.21
2022-11-08T08:48:33.571Z,75.92
2022-11-08T08:51:00.621Z,75.68
2022-11-08T08:53:27.763Z,75.50
2022-11-08T08:55:54.813Z,75.30
2022-11-08T08:58:22.903Z,75.01
2022-11-08T09:03:40.092Z,74.80
2022-11-08T09:06:07.870Z,74.95
2022-11-08T09:08:34.944Z,74.47
2022-11-08T09:11:03.700Z,74.27
2022-11-08T09:13:32.359Z,73.99
2022-11-08T09:16:02.683Z,73.64
2022-11-08T09:18:31.162Z,73.88
2022-11-08T09:20:59.287Z,73.61
2022-11-08T09:23:26.976Z,73.11
2022-11-08T09:26:05.266Z,73.04
2022-11-08T09:28:35.085Z,72.95
2022-11-08T09:31:06.984Z,72.79
2022-11-08T09:33:37.027Z,72.66
2022-11-08T09:36:05.830Z,72.56
2022-11-08T09:38:33.433Z,72.77
2022-11-08T09:41:15.604Z,72.03
2022-11-08T09:44:19.869Z,71.84
2022-11-08T09:46:53.513Z,71.58
2022-11-08T09:49:32.405Z,71.59
2022-11-08T09:52:02.987Z,71.66
2022-11-08T09:54:40.150Z,70.95
2022-11-08T09:57:26.451Z,70.50
2022-11-08T10:00:05.963Z,70.73
2022-11-08T10:02:36.610Z,70.72
2022-11-08T10:05:09.534Z,70.77
2022-11-08T10:07:49.460Z,70.19
2022-11-08T10:11:01.775Z,70.02
2022-11-08T10:13:31.415Z,69.91
2022-11-08T10:16:27.278Z,69.17
2022-11-08T10:19:15.835Z,69.29
2022-11-08T10:22:09.902Z,69.06
2022-11-08T10:25:01.942Z,68.73
2022-11-08T10:27:41.751Z,68.72
2022-11-08T10:30:31.327Z,68.36
2022-11-08T10:32:58.561Z,68.00
2022-11-08T10:35:34.760Z,67.71
2022-11-08T10:38:10.246Z,67.73
2022-11-08T10:40:50.867Z,67.24
2022-11-08T10:43:35.347Z,66.31
2022-11-08T10:46:02.461Z,66.57
2022-11-08T10:48:37.162Z,66.83
2022-11-08T10:51:04.434Z,67.20
2022-11-08T10:53:32.835Z,66.32
2022-11-08T10:56:02.528Z,65.41
2022-11-08T10:58:39.351Z,65.47
2022-11-08T11:01:20.411Z,64.81
2022-11-08T11:03:50.813Z,64.48
2022-11-08T11:06:30.613Z,64.25
2022-11-08T11:09:02.201Z,64.78
2022-11-08T11:11:32.183Z,64.51
2022-11-08T11:14:22.426Z,64.34
2022-11-08T11:17:15.644Z,64.76
2022-11-08T11:19:57.340Z,64.51
2022-11-08T11:22:35.467Z,64.41
2022-11-08T11:25:16.412Z,64.55
2022-11-08T11:27:48.365Z,64.62
2022-11-08T11:30:30.399Z,64.42
2022-11-08T11:33:13.815Z,64.55
2022-11-08T11:35:54.398Z,63.63
2022-11-08T11:38:35.786Z,63.69
2022-11-08T11:41:12.710Z,63.76
2022-11-08T11:44:23.422Z,63.80
2022-11-08T11:47:42.665Z,63.44
2022-11-08T11:50:30.936Z,62.86
2022-11-08T11:53:01.065Z,62.63
2022-11-08T11:56:08.242Z,62.31
2022-11-08T11:58:38.228Z,62.11
2022-11-08T12:01:44.087Z,62.15
2022-11-08T12:04:42.034Z,61.67
2022-11-08T12:07:22.337Z,62.04
2022-11-08T12:10:16.590Z,61.92
2022-11-08T12:13:12.799Z,61.50
2022-11-08T12:16:20.302Z,61.79
2022-11-08T12:19:19.457Z,61.43
2022-11-08T12:22:09.922Z,61.62
2022-11-08T12:25:09.230Z,60.63
2022-11-08T12:28:17.616Z,60.23
2022-11-08T12:31:31.966Z,60.53
2022-11-08T12:34:36.415Z,59.65
2022-11-08T12:37:24.969Z,59.62
2022-11-08T12:40:04.661Z,59.68
2022-11-08T12:42:50.054Z,59.00
2022-11-08T12:45:43.994Z,59.09
2022-11-08T12:48:47.226Z,59.76
2022-11-08T12:52:03.969Z,59.49
2022-11-08T12:54:48.113Z,59.94
2022-11-08T12:57:21.193Z,60.36
2022-11-08T13:00:06.553Z,60.12
2022-11-08T13:02:38.906Z,60.43
2022-11-08T13:05:26.300Z,60.64
2022-11-08T13:08:08.706Z,60.89
2022-11-08T13:10:59.388Z,60.87
2022-11-08T13:13:51.569Z,60.92
2022-11-08T13:16:25.915Z,61.49
2022-11-08T13:18:57.755Z,61.19
2022-11-08T13:21:27.758Z,61.13
2022-11-08T13:24:30.770Z,61.06
2022-11-08T13:27:30.321Z,61.14
2022-11-08T13:30:05.279Z,61.02
2022-11-08T13:32:56.498Z,61.14
2022-11-08T13:35:47.332Z,61.25
2022-11-08T13:38:55.867Z,61.12
2022-11-08T13:41:25.881Z,61.17
2022-11-08T13:43:58.455Z,61.39
2022-11-08T13:46:29.693Z,61.25
2022-11-08T13:49:20.411Z,61.56
2022-11-08T13:51:47.607Z,61.76
2022-11-08T13:54:23.464Z,61.51
2022-11-08T13:56:59.403Z,61.61
2022-11-08T13:59:32.628Z,61.56
2022-11-08T14:02:05.707Z,61.18
2022-11-08T14:04:41.173Z,61.30
2022-11-08T14:08:21.362Z,60.85
2022-11-08T14:11:09.571Z,61.08
2022-11-08T14:14:06.151Z,60.79
2022-11-08T14:17:02.635Z,61.36
2022-11-08T14:19:36.094Z,61.27
2022-11-08T14:22:03.494Z,61.03
2022-11-08T14:24:37.206Z,60.93
2022-11-08T14:27:04.292Z,61.01
2022-11-08T14:29:31.383Z,61.46
2022-11-08T14:32:24.571Z,61.37
2022-11-08T14:34:51.577Z,61.43
2022-11-08T14:37:28.404Z,61.45
2022-11-08T14:39:55.539Z,61.73
2022-11-08T14:42:26.313Z,61.63
2022-11-08T14:44:57.290Z,61.75
2022-11-08T14:47:30.431Z,61.89
2022-11-08T14:49:59.330Z,62.40
2022-11-08T14:52:33.111Z,62.58
2022-11-08T14:55:09.333Z,62.82
2022-11-08T14:57:40.022Z,63.19
2022-11-08T15:00:13.602Z,63.38
2022-11-08T15:02:44.987Z,63.64
2022-11-08T15:05:44.966Z,64.02
2022-11-08T15:08:31.972Z,64.11
2022-11-08T15:11:03.878Z,64.42
2022-11-08T15:13:46.186Z,64.79
2022-11-08T15:16:13.513Z,64.89
2022-11-08T15:18:43.715Z,65.06
2022-11-08T15:21:16.386Z,65.34
2022-11-08T15:23:46.399Z,65.49
2022-11-08T15:26:32.915Z,65.52
2022-11-08T15:29:12.877Z,65.71
2022-11-08T15:31:55.552Z,65.80
2022-11-08T15:34:40.598Z,66.30
2022-11-08T15:37:42.667Z,66.09
2022-11-08T15:40:27.220Z,66.45
2022-11-08T15:42:54.699Z,66.74
2022-11-08T15:45:33.059Z,66.71
2022-11-08T15:48:10.789Z,67.19
2022-11-08T15:50:39.875Z,67.36
2022-11-08T15:53:06.976Z,67.52
2022-11-08T15:55:49.009Z,67.76
2022-11-08T15:58:39.978Z,67.88
2022-11-08T16:01:07.616Z,68.24
2022-11-08T16:03:34.782Z,68.16
2022-11-08T16:06:01.819Z,68.29
2022-11-08T16:08:29.021Z,68.35
2022-11-08T16:11:01.254Z,68.69
2022-11-08T16:13:33.017Z,68.92
2022-11-08T16:16:03.485Z,69.34
2022-11-08T16:18:34.165Z,69.49
2022-11-08T16:21:01.863Z,69.54
2022-11-08T16:23:29.834Z,69.63
2022-11-08T16:26:03.302Z,69.73
2022-11-08T16:28:36.770Z,69.77
2022-11-08T16:31:16.479Z,69.95
2022-11-08T16:33:46.047Z,69.99
2022-11-08T16:36:28.033Z,70.20
2022-11-08T16:39:02.129Z,70.30
2022-11-08T16:41:29.475Z,70.54
2022-11-08T16:44:06.146Z,70.83
2022-11-08T16:46:35.763Z,71.05
2022-11-08T16:49:08.531Z,71.18
2022-11-08T16:51:39.442Z,71.30
2022-11-08T16:54:19.579Z,71.72
2022-11-08T16:56:46.826Z,71.52
2022-11-08T16:59:14.865Z,71.60
2022-11-08T17:01:44.216Z,71.88
2022-11-08T17:04:11.573Z,71.96
2022-11-08T17:06:38.720Z,72.24
2022-11-08T17:09:05.954Z,72.25
2022-11-08T17:11:32.989Z,72.42
2022-11-08T17:14:00.036Z,72.57
2022-11-08T17:16:27.281Z,72.69
2022-11-08T17:18:54.398Z,73.05
2022-11-08T17:24:10.298Z,73.17
2022-11-08T17:26:37.425Z,73.43
2022-11-08T17:29:17.453Z,73.58
2022-11-08T17:31:44.498Z,73.49
2022-11-08T17:34:11.556Z,73.62
2022-11-08T17:36:38.534Z,74.09
2022-11-08T17:39:06.110Z,73.92
2022-11-08T17:41:33.476Z,74.40
2022-11-08T17:44:00.502Z,74.18
2022-11-08T17:46:27.563Z,74.58
2022-11-08T17:48:54.598Z,74.74
2022-11-08T17:51:21.738Z,74.63
2022-11-08T17:53:49.707Z,74.82
2022-11-08T17:56:16.793Z,74.86
2022-11-08T17:58:43.806Z,74.85
2022-11-08T18:01:10.837Z,74.99
2022-11-08T18:03:37.926Z,75.21
2022-11-08T18:06:12.071Z,75.23
2022-11-08T18:08:41.587Z,75.20
2022-11-08T18:11:09.394Z,75.45
2022-11-08T18:13:36.593Z,75.46
2022-11-08T18:16:14.581Z,75.52
2022-11-08T18:18:42.950Z,75.21
2022-11-08T18:21:10.975Z,75.37
2022-11-08T18:23:47.758Z,75.47
2022-11-08T18:26:16.986Z,75.71
2022-11-08T18:28:45.291Z,75.54
2022-11-08T18:31:19.344Z,75.69
2022-11-08T18:33:47.802Z,75.88
2022-11-08T18:36:21.658Z,75.94
2022-11-08T18:38:52.442Z,75.82
2022-11-08T18:41:29.671Z,75.86
2022-11-08T18:43:58.871Z,75.84
2022-11-08T18:46:34.890Z,76.13
2022-11-08T18:49:05.229Z,76.05
2022-11-08T18:51:32.315Z,75.96
2022-11-08T18:53:59.417Z,76.09
2022-11-08T18:56:26.469Z,76.08
2022-11-08T18:58:54.333Z,75.98
2022-11-08T19:01:21.445Z,76.10
2022-11-08T19:03:48.591Z,76.19
2022-11-08T19:06:15.641Z,76.16
2022-11-08T19:08:42.689Z,76.29
2022-11-08T19:11:12.216Z,76.18
2022-11-08T19:13:41.303Z,75.99
2022-11-08T19:16:15.326Z,76.04
2022-11-08T19:18:44.507Z,76.25
2022-11-08T19:21:24.691Z,76.22
2022-11-08T19:23:56.270Z,76.24
2022-11-08T19:26:26.336Z,76.17
2022-11-08T19:28:57.687Z,76.51
2022-11-08T19:31:26.035Z,76.30
2022-11-08T19:33:54.733Z,76.56
2022-11-08T19:36:25.818Z,76.49
2022-11-08T19:38:54.938Z,76.55
2022-11-08T19:41:25.892Z,76.75
2022-11-08T19:43:53.300Z,76.90
2022-11-08T19:46:28.974Z,77.08
2022-11-08T19:48:57.281Z,77.02
2022-11-08T19:51:27.822Z,76.68
2022-11-08T19:53:59.767Z,76.92
2022-11-08T19:56:50.007Z,76.75
2022-11-08T19:59:15.069Z,76.71
2022-11-08T20:01:42.326Z,76.58
2022-11-08T20:04:12.017Z,76.58
2022-11-08T20:06:39.945Z,76.62
2022-11-08T20:09:09.424Z,76.52
2022-11-08T20:11:40.673Z,76.67
2022-11-08T20:14:10.753Z,76.53
2022-11-08T20:16:41.849Z,76.61
2022-11-08T20:19:16.375Z,76.56
2022-11-08T20:21:46.184Z,76.80
2022-11-08T20:24:14.574Z,77.00
2022-11-08T20:26:47.613Z,76.93
2022-11-08T20:29:14.845Z,76.94
2022-11-08T20:31:42.402Z,76.86
2022-11-08T20:34:12.737Z,76.70
2022-11-08T20:36:41.537Z,76.71
2022-11-08T20:39:11.059Z,76.71
2022-11-08T20:41:40.926Z,76.72
2022-11-08T20:44:10.506Z,76.72
2022-11-08T20:46:38.727Z,76.76
2022-11-08T20:49:06.353Z,76.50
2022-11-08T20:51:34.843Z,76.61
2022-11-08T20:54:02.123Z,76.50
2022-11-08T20:56:30.298Z,76.48
2022-11-08T20:58:57.662Z,76.42
2022-11-08T21:01:28.251Z,76.36
2022-11-08T21:03:56.473Z,76.45
2022-11-08T21:06:26.798Z,76.41
2022-11-08T21:09:12.117Z,76.36
2022-11-08T21:11:45.125Z,76.20
2022-11-08T21:14:12.307Z,76.20
2022-11-08T21:17:06.621Z,76.21
2022-11-08T21:19:27.026Z,76.27
2022-11-08T21:22:14.001Z,76.07
2022-11-08T21:24:46.022Z,76.33
2022-11-08T21:27:15.106Z,76.23
2022-11-08T21:29:42.145Z,76.04
2022-11-08T21:32:09.394Z,76.26
2022-11-08T21:34:36.590Z,76.25
2022-11-08T21:37:12.601Z,76.30
2022-11-08T21:39:39.743Z,76.31
2022-11-08T21:42:06.755Z,76.48
2022-11-08T21:44:33.811Z,76.67
2022-11-08T21:47:00.830Z,76.84
2022-11-08T21:49:27.958Z,77.10
2022-11-08T21:51:54.926Z,77.23
2022-11-08T21:54:22.157Z,77.32
2022-11-08T21:56:49.264Z,77.22
2022-11-08T21:59:16.233Z,77.28
2022-11-08T22:01:43.335Z,77.54
2022-11-08T22:04:10.345Z,77.61
2022-11-08T22:06:37.445Z,77.76
2022-11-08T22:09:04.559Z,77.81
2022-11-08T22:11:31.620Z,77.91
2022-11-08T22:13:58.643Z,78.03
2022-11-08T22:16:25.689Z,78.15
2022-11-08T22:19:08.241Z,78.19
2022-11-08T22:21:40.014Z,78.38
2022-11-08T22:24:20.445Z,78.56
2022-11-08T22:26:49.585Z,78.58
2022-11-08T22:29:18.137Z,78.56
2022-11-08T22:31:45.360Z,78.62
2022-11-08T22:34:12.594Z,78.67
2022-11-08T22:36:45.309Z,78.55
2022-11-08T22:39:19.970Z,78.52
2022-11-08T22:41:49.961Z,78.87
2022-11-08T22:44:18.137Z,78.84
2022-11-08T22:46:47.611Z,79.04
2022-11-08T22:49:15.758Z,79.16
2022-11-08T22:51:44.460Z,79.30
2022-11-08T22:54:12.262Z,79.44
2022-11-08T22:56:40.295Z,79.34
2022-11-08T22:59:07.955Z,79.39
2022-11-08T23:01:35.536Z,79.43
2022-11-08T23:04:02.964Z,79.68
2022-11-08T23:06:30.186Z,79.82
2022-11-08T23:08:57.459Z,79.96
2022-11-08T23:11:43.315Z,80.01
2022-11-08T23:14:35.468Z,80.17
2022-11-08T23:17:04.246Z,80.30
2022-11-08T23:19:50.475Z,80.32
2022-11-08T23:22:36.771Z,80.67
2022-11-08T23:25:04.622Z,80.77
2022-11-08T23:27:51.551Z,80.66
2022-11-08T23:30:37.903Z,80.54
2022-11-08T23:33:06.898Z,80.38
2022-11-08T23:35:34.603Z,80.44
2022-11-08T23:38:01.804Z,80.36
2022-11-08T23:40:47.474Z,80.38
2022-11-08T23:43:36.857Z,80.67
2022-11-08T23:46:10.488Z,80.56
2022-11-08T23:48:40.120Z,80.58
2022-11-08T23:51:08.403Z,80.74
2022-11-08T23:53:37.157Z,80.79
2022-11-08T23:56:05.064Z,80.83
2022-11-08T23:58:33.941Z,80.82
